createdAt,value
2018-06-21T00:03:12.099Z,11.50
2018-06-21T00:08:06.638Z,8.93
2018-06-21T00:13:01.289Z,12.73
2018-06-21T00:17:55.924Z,8.10
2018-06-21T00:22:50.683Z,13.87
2018-06-21T00:27:45.117Z,7.73
2018-06-21T00:32:39.746Z,8.30
2018-06-21T00:37:34.356Z,10.57
2018-06-21T00:42:28.939Z,10.80
2018-06-21T00:47:23.499Z,9.83
2018-06-21T00:52:18.083Z,7.30
2018-06-21T00:57:12.746Z,9.97
2018-06-21T01:02:07.398Z,7.97
2018-06-21T01:07:02.324Z,8.47
2018-06-21T01:11:56.932Z,6.23
2018-06-21T01:16:51.643Z,11.90
2018-06-21T01:21:46.313Z,10.20
2018-06-21T01:26:40.946Z,9.80
2018-06-21T01:31:35.578Z,6.27
2018-06-21T01:36:30.102Z,7.37
2018-06-21T01:41:24.614Z,9.30
2018-06-21T01:46:19.265Z,9.83
2018-06-21T01:51:13.821Z,11.80
2018-06-21T01:56:08.339Z,9.73
2018-06-21T02:01:02.879Z,11.90
2018-06-21T02:05:57.553Z,11.53
2018-06-21T02:10:52.153Z,13.80
2018-06-21T02:15:46.692Z,13.10
2018-06-21T02:20:41.345Z,9.03
2018-06-21T02:25:35.932Z,11.60
2018-06-21T02:30:30.603Z,11.77
2018-06-21T02:35:25.354Z,11.43
2018-06-21T02:40:19.939Z,11.80
2018-06-21T02:45:14.594Z,10.63
2018-06-21T02:50:09.222Z,8.80
2018-06-21T02:55:04.989Z,11.67
2018-06-21T02:59:59.916Z,12.43
2018-06-21T03:04:54.747Z,12.07
2018-06-21T03:09:49.337Z,12.47
2018-06-21T03:14:44.292Z,9.23
2018-06-21T03:19:38.982Z,10.10
2018-06-21T03:24:33.654Z,12.37
2018-06-21T03:29:27.930Z,14.67
2018-06-21T03:34:23.219Z,11.53
2018-06-21T03:39:17.783Z,11.60
2018-06-21T03:44:12.290Z,10.93
2018-06-21T03:49:06.730Z,13.87
2018-06-21T03:54:01.413Z,13.43
2018-06-21T03:58:55.736Z,12.40
2018-06-21T04:03:50.560Z,12.37
2018-06-21T04:08:45.327Z,11.77
2018-06-21T04:13:40.053Z,10.73
2018-06-21T04:18:36.088Z,9.40
2018-06-21T04:23:30.794Z,12.13
2018-06-21T04:28:25.249Z,13.07
2018-06-21T04:33:19.761Z,10.67
2018-06-21T04:38:14.322Z,12.13
2018-06-21T04:43:09.056Z,11.77
2018-06-21T04:48:03.696Z,8.43
2018-06-21T04:52:58.710Z,6.33
2018-06-21T04:57:53.212Z,9.50
2018-06-21T05:02:47.778Z,10.53
2018-06-21T05:07:42.527Z,13.67
2018-06-21T05:12:37.067Z,14.93
2018-06-21T05:17:31.610Z,15.87
2018-06-21T05:22:26.868Z,16.77
2018-06-21T05:27:21.351Z,16.47
2018-06-21T05:32:17.326Z,12.00
2018-06-21T05:37:12.638Z,10.93
2018-06-21T05:42:07.105Z,11.47
2018-06-21T05:47:01.793Z,12.27
2018-06-21T05:51:56.353Z,10.20
2018-06-21T05:56:50.911Z,14.67
2018-06-21T06:01:45.372Z,10.70
2018-06-21T06:06:42.149Z,14.27
2018-06-21T06:11:36.675Z,10.13
2018-06-21T06:16:31.404Z,11.97
2018-06-21T06:21:25.664Z,11.73
2018-06-21T06:26:20.151Z,14.27
2018-06-21T06:31:14.626Z,10.90
2018-06-21T06:36:09.086Z,19.60
2018-06-21T06:41:03.560Z,19.53
2018-06-21T06:45:58.457Z,22.03
2018-06-21T06:50:52.949Z,19.93
2018-06-21T06:55:47.626Z,22.00
2018-06-21T07:00:42.131Z,17.47
2018-06-21T07:05:36.752Z,14.67
2018-06-21T07:10:31.462Z,16.60
2018-06-21T07:15:26.185Z,15.07
2018-06-21T07:20:20.609Z,16.07
2018-06-21T07:25:15.440Z,19.10
2018-06-21T07:30:10.315Z,14.50
2018-06-21T07:35:04.797Z,17.77
2018-06-21T07:39:59.345Z,16.93
2018-06-21T07:44:53.813Z,13.77
2018-06-21T07:49:48.302Z,16.80
2018-06-21T07:54:43.272Z,13.73
2018-06-21T07:59:37.882Z,14.07
2018-06-21T08:04:32.730Z,13.17
2018-06-21T08:09:27.368Z,12.20
2018-06-21T08:14:21.915Z,11.10
2018-06-21T08:19:16.384Z,13.87
2018-06-21T08:24:10.835Z,8.70
2018-06-21T08:29:05.300Z,12.10
2018-06-21T08:34:00.010Z,7.90
2018-06-21T08:38:54.593Z,8.90
2018-06-21T08:43:49.244Z,9.50
2018-06-21T08:48:43.601Z,9.93
2018-06-21T08:53:38.326Z,6.23
2018-06-21T08:58:33.408Z,14.37
2018-06-21T09:03:27.882Z,5.80
2018-06-21T09:08:22.331Z,9.60
2018-06-21T09:13:16.781Z,10.13
2018-06-21T09:18:10.984Z,8.33
2018-06-21T09:23:05.702Z,11.77
2018-06-21T09:28:00.357Z,7.70
2018-06-21T09:32:54.926Z,7.17
2018-06-21T09:37:54.925Z,10.93
2018-06-21T09:42:54.916Z,13.07
2018-06-21T09:47:55.076Z,18.70
2018-06-21T09:52:49.986Z,15.20
2018-06-21T09:57:45.603Z,9.40
2018-06-21T10:02:40.598Z,10.77
2018-06-21T10:07:35.343Z,14.13
2018-06-21T10:12:30.077Z,14.77
2018-06-21T10:17:25.351Z,8.27
2018-06-21T10:22:20.416Z,5.93
2018-06-21T10:27:15.052Z,12.57
2018-06-21T10:32:09.389Z,11.57
2018-06-21T10:37:04.213Z,11.10
2018-06-21T10:41:59.278Z,12.77
2018-06-21T10:46:53.922Z,9.40
2018-06-21T10:51:48.598Z,9.60
2018-06-21T10:56:43.473Z,14.70
2018-06-21T11:01:38.448Z,14.00
2018-06-21T11:06:33.300Z,18.13
2018-06-21T11:11:28.526Z,11.17
2018-06-21T11:16:23.473Z,12.23
2018-06-21T11:21:18.364Z,9.70
2018-06-21T11:26:13.589Z,9.43
2018-06-21T11:31:08.292Z,8.97
2018-06-21T11:36:04.313Z,15.37
2018-06-21T11:40:58.788Z,8.90
2018-06-21T11:45:53.126Z,7.47
2018-06-21T11:50:47.692Z,6.97
2018-06-21T11:55:42.311Z,5.53
2018-06-21T12:00:37.020Z,5.77
2018-06-21T12:05:31.956Z,8.07
2018-06-21T12:10:26.833Z,4.13
2018-06-21T12:15:21.492Z,10.10
2018-06-21T12:20:16.005Z,7.37
2018-06-21T12:25:10.572Z,10.23
2018-06-21T12:30:05.049Z,8.57
2018-06-21T12:34:59.750Z,8.17
2018-06-21T12:39:54.211Z,4.37
2018-06-21T12:44:48.671Z,5.40
2018-06-21T12:49:43.502Z,5.83
2018-06-21T12:54:37.906Z,6.43
2018-06-21T12:59:32.358Z,13.57
2018-06-21T13:04:27.088Z,7.70
2018-06-21T13:09:38.656Z,5.87
2018-06-21T13:14:33.626Z,6.23
2018-06-21T13:19:28.092Z,4.40
2018-06-21T13:24:22.697Z,8.37
2018-06-21T13:29:17.446Z,12.07
2018-06-21T13:34:11.928Z,6.47
2018-06-21T13:39:08.579Z,6.37
2018-06-21T13:44:05.601Z,12.43
2018-06-21T13:48:59.857Z,10.50
2018-06-21T13:53:54.919Z,4.13
2018-06-21T13:58:53.221Z,7.70
2018-06-21T14:03:47.699Z,5.83
2018-06-21T14:08:42.460Z,6.93
2018-06-21T14:13:37.137Z,8.67
2018-06-21T14:18:31.711Z,7.00
2018-06-21T14:23:26.411Z,7.67
2018-06-21T14:28:20.921Z,6.80
2018-06-21T14:33:16.322Z,5.80
2018-06-21T14:38:10.914Z,9.70
2018-06-21T14:43:05.963Z,11.20
2018-06-21T14:48:00.503Z,9.03
2018-06-21T14:52:55.268Z,7.40
2018-06-21T14:57:49.779Z,5.80
2018-06-21T15:02:44.284Z,6.20
2018-06-21T15:07:38.802Z,6.90
2018-06-21T15:12:33.527Z,4.03
2018-06-21T15:17:28.350Z,8.87
2018-06-21T15:22:23.130Z,5.63
2018-06-21T15:27:17.639Z,8.17
2018-06-21T15:32:12.138Z,10.63
2018-06-21T15:37:07.001Z,5.67
2018-06-21T15:42:02.270Z,4.83
2018-06-21T15:46:57.033Z,5.77
2018-06-21T15:51:51.579Z,7.83
2018-06-21T15:56:46.612Z,7.27
2018-06-21T16:01:41.147Z,12.43
2018-06-21T16:06:35.703Z,6.70
2018-06-21T16:11:29.952Z,5.57
2018-06-21T16:16:24.852Z,5.57
2018-06-21T16:21:19.286Z,6.33
2018-06-21T16:26:13.782Z,7.70
2018-06-21T16:31:08.238Z,10.97
2018-06-21T16:36:03.070Z,5.53
2018-06-21T16:40:57.830Z,3.43
2018-06-21T16:45:52.693Z,9.33
2018-06-21T16:50:47.228Z,9.87
2018-06-21T16:55:41.924Z,6.70
2018-06-21T17:00:36.589Z,7.67
2018-06-21T17:05:31.452Z,4.43
2018-06-21T17:10:26.098Z,5.57
2018-06-21T17:15:21.366Z,5.93
2018-06-21T17:20:15.981Z,8.10
2018-06-21T17:25:10.534Z,7.07
2018-06-21T17:30:05.505Z,6.13
2018-06-21T17:35:00.208Z,7.10
2018-06-21T17:39:54.720Z,5.47
2018-06-21T17:44:49.309Z,7.90
2018-06-21T17:49:43.822Z,5.90
2018-06-21T17:54:38.504Z,9.20
2018-06-21T17:59:33.637Z,7.77
2018-06-21T18:04:28.243Z,7.30
2018-06-21T18:09:23.104Z,4.73
2018-06-21T18:14:17.753Z,5.73
2018-06-21T18:19:12.399Z,3.80
2018-06-21T18:24:46.335Z,9.67
2018-06-21T18:35:11.853Z,7.53
2018-06-21T18:40:20.668Z,7.87
2018-06-21T18:45:19.956Z,6.80
2018-06-21T18:50:14.462Z,4.77
2018-06-21T18:55:08.959Z,10.40
2018-06-21T19:00:03.710Z,5.97
2018-06-21T19:04:58.182Z,4.93
2018-06-21T19:09:58.021Z,7.10
2018-06-21T19:14:53.098Z,10.23
2018-06-21T19:19:47.567Z,7.10
2018-06-21T19:24:43.831Z,8.50
2018-06-21T19:29:38.340Z,9.80
2018-06-21T19:34:32.712Z,6.20
2018-06-21T19:39:27.436Z,7.40
2018-06-21T19:44:21.966Z,10.13
2018-06-21T19:49:16.389Z,10.83
2018-06-21T19:54:10.967Z,8.33
2018-06-21T19:59:05.617Z,12.00
2018-06-21T20:04:00.350Z,12.63
2018-06-21T20:08:54.884Z,9.17
2018-06-21T20:13:51.403Z,12.53
2018-06-21T20:18:46.944Z,10.27
2018-06-21T20:23:43.972Z,9.43
2018-06-21T20:28:41.224Z,7.80
2018-06-21T20:33:36.837Z,12.63
2018-06-21T20:38:32.239Z,9.30
2018-06-21T20:43:28.086Z,8.97
2018-06-21T20:48:22.876Z,11.50
2018-06-21T20:53:17.921Z,8.70
2018-06-21T20:58:12.618Z,7.23
2018-06-21T21:03:07.258Z,11.27
2018-06-21T21:08:02.307Z,9.83
2018-06-21T21:12:58.416Z,6.03
2018-06-21T21:17:54.023Z,6.10
2018-06-21T21:22:48.682Z,15.97
2018-06-21T21:27:43.268Z,7.00
2018-06-21T21:32:37.969Z,8.07
2018-06-21T21:37:32.643Z,5.87
2018-06-21T21:42:28.658Z,7.07
2018-06-21T21:47:24.445Z,12.73
2018-06-21T21:52:20.386Z,9.23
2018-06-21T21:57:15.616Z,9.37
2018-06-21T22:02:10.420Z,8.43
2018-06-21T22:07:05.624Z,6.87
2018-06-21T22:12:01.102Z,9.83
2018-06-21T22:16:55.522Z,7.00
2018-06-21T22:21:50.321Z,9.17
2018-06-21T22:26:46.766Z,7.93
2018-06-21T22:31:44.936Z,10.07
2018-06-21T22:36:43.429Z,12.83
2018-06-21T22:41:44.578Z,8.87
2018-06-21T22:46:40.609Z,9.53
2018-06-21T22:51:36.250Z,10.60
2018-06-21T22:56:34.229Z,10.73
2018-06-21T23:01:30.776Z,7.13
2018-06-21T23:06:25.888Z,10.93
2018-06-21T23:11:21.130Z,8.67
2018-06-21T23:16:15.782Z,10.27
2018-06-21T23:21:11.487Z,13.27
2018-06-21T23:26:06.091Z,8.37
2018-06-21T23:31:01.191Z,12.60
2018-06-21T23:35:56.292Z,12.27
2018-06-21T23:40:51.413Z,12.47
2018-06-21T23:45:45.920Z,8.67
2018-06-21T23:50:40.497Z,12.67
2018-06-21T23:55:34.951Z,12.90
